< < Back
Terminal Aerodrome Forecast


Current Version              Previous Versions:   1  2  3  4  5  6  7  8  9  

Terminal Aerodrome Forecast

303
FTUS42 KCAE 242300
TAFAGS
TAF
KAGS 242328Z 2500/2524 VRB05KT P6SM FEW080
     FM250600 13004KT P6SM FEW015 BKN100
     FM250800 VRB03KT 6SM BR SCT008 BKN015
     FM251400 22012G20KT P6SM SCT015 BKN045
     FM251800 26017G24KT P6SM SCT050 SCT100=

Latest METAR

623
SAUS70 KWBC 250100
MTRAGS
METAR KAGS 250053Z 14006KT 10SM -RA SCT080 21/14 A2993 RMK AO2 RAB45
SLP135 P0000 T02110139


USA.gov is the U.S. government's official web portal to all federal, state and local government web resources and services.